sensor_id;sensor_type;location;lat;lon;timestamp;pressure;altitude;pressure_sealevel;temperature;humidity
74079;BME280;62437;51.544;-3.276;2022-07-22T13:46:03;101262.27;;;26.67;31.95
74079;BME280;62437;51.544;-3.276;2022-07-22T13:48:27;101263.50;;;26.61;31.98
74079;BME280;62437;51.544;-3.276;2022-07-22T13:56:12;101257.97;;;26.30;31.99
74079;BME280;62437;51.544;-3.276;2022-07-22T14:10:12;63417.60;;;19.25;65.16
74079;BME280;62437;51.544;-3.276;2022-07-22T14:12:37;101232.11;;;22.67;39.56
74079;BME280;62437;51.544;-3.276;2022-07-22T14:15:03;101234.88;;;23.75;38.09
74079;BME280;62437;51.544;-3.276;2022-07-22T14:17:28;101229.29;;;25.33;34.65
74079;BME280;62437;51.544;-3.276;2022-07-22T14:19:54;101227.44;;;25.12;35.76
74079;BME280;62437;51.544;-3.276;2022-07-22T14:22:20;101226.61;;;25.55;35.93
74079;BME280;62437;51.544;-3.276;2022-07-22T14:24:45;101222.82;;;25.63;35.19
74079;BME280;62437;51.544;-3.276;2022-07-22T14:27:11;101221.92;;;25.73;34.74
74079;BME280;62437;51.544;-3.276;2022-07-22T14:29:36;101223.50;;;25.49;35.19
74079;BME280;62437;51.544;-3.276;2022-07-22T14:32:02;101223.59;;;25.07;35.41
74079;BME280;62437;51.544;-3.276;2022-07-22T14:34:28;101228.08;;;25.38;35.10
74079;BME280;62437;51.544;-3.276;2022-07-22T14:36:53;101230.58;;;24.86;34.96
74079;BME280;62437;51.544;-3.276;2022-07-22T14:39:19;101235.60;;;24.93;36.06
74079;BME280;62437;51.544;-3.276;2022-07-22T14:41:44;101227.29;;;24.66;34.89
74079;BME280;62437;51.544;-3.276;2022-07-22T14:44:10;101229.06;;;24.70;35.56
74079;BME280;62437;51.544;-3.276;2022-07-22T14:46:36;101227.74;;;25.24;34.43
74079;BME280;62437;51.544;-3.276;2022-07-22T14:49:01;101235.32;;;25.71;34.55
74079;BME280;62437;51.544;-3.276;2022-07-22T14:51:27;101229.12;;;25.46;34.55
74079;BME280;62437;51.544;-3.276;2022-07-22T14:53:52;101231.65;;;25.52;34.66
74079;BME280;62437;51.544;-3.276;2022-07-22T14:56:18;101232.06;;;25.05;35.95
74079;BME280;62437;51.544;-3.276;2022-07-22T14:58:44;101230.22;;;25.57;34.37
74079;BME280;62437;51.544;-3.276;2022-07-22T15:01:09;101235.10;;;25.75;34.60
74079;BME280;62437;51.544;-3.276;2022-07-22T15:03:35;101236.03;;;25.64;33.72
74079;BME280;62437;51.544;-3.276;2022-07-22T15:06:01;101230.13;;;25.45;33.98
74079;BME280;62437;51.544;-3.276;2022-07-22T15:08:26;101228.70;;;25.87;33.66
74079;BME280;62437;51.544;-3.276;2022-07-22T15:10:52;101232.14;;;25.30;35.05
74079;BME280;62437;51.544;-3.276;2022-07-22T15:13:18;101227.95;;;25.14;34.49
74079;BME280;62437;51.544;-3.276;2022-07-22T15:15:43;101225.82;;;25.49;35.72
74079;BME280;62437;51.544;-3.276;2022-07-22T15:18:09;101223.19;;;26.10;33.47
74079;BME280;62437;51.544;-3.276;2022-07-22T15:20:34;101222.25;;;25.70;33.37
74079;BME280;62437;51.544;-3.276;2022-07-22T15:23:00;101217.84;;;25.35;33.57
74079;BME280;62437;51.544;-3.276;2022-07-22T15:25:26;101217.02;;;25.72;33.98
74079;BME280;62437;51.544;-3.276;2022-07-22T15:27:52;101214.33;;;25.61;34.08
74079;BME280;62437;51.544;-3.276;2022-07-22T15:30:17;101216.61;;;25.64;33.85
74079;BME280;62437;51.544;-3.276;2022-07-22T15:32:43;101212.89;;;25.79;33.40
74079;BME280;62437;51.544;-3.276;2022-07-22T15:35:09;101209.64;;;25.63;32.98
74079;BME280;62437;51.544;-3.276;2022-07-22T15:37:34;101210.36;;;26.00;33.60
74079;BME280;62437;51.544;-3.276;2022-07-22T15:40:00;101211.66;;;25.93;33.53
74079;BME280;62437;51.544;-3.276;2022-07-22T15:42:25;101211.84;;;25.88;32.92
74079;BME280;62437;51.544;-3.276;2022-07-22T15:44:51;101210.58;;;25.74;33.61
74079;BME280;62437;51.544;-3.276;2022-07-22T15:47:17;101210.56;;;25.44;34.58
74079;BME280;62437;51.544;-3.276;2022-07-22T15:49:43;101211.50;;;25.69;33.92
74079;BME280;62437;51.544;-3.276;2022-07-22T15:52:08;101207.60;;;25.48;33.52
74079;BME280;62437;51.544;-3.276;2022-07-22T15:54:34;101207.41;;;25.60;33.57
74079;BME280;62437;51.544;-3.276;2022-07-22T15:56:59;101208.51;;;25.23;33.91
74079;BME280;62437;51.544;-3.276;2022-07-22T15:59:25;101208.19;;;25.18;34.17
74079;BME280;62437;51.544;-3.276;2022-07-22T16:01:51;101204.03;;;25.30;33.99
74079;BME280;62437;51.544;-3.276;2022-07-22T16:04:16;101204.79;;;25.80;34.45
74079;BME280;62437;51.544;-3.276;2022-07-22T16:06:42;101204.41;;;25.56;34.19
74079;BME280;62437;51.544;-3.276;2022-07-22T16:09:08;101206.17;;;25.21;34.43
74079;BME280;62437;51.544;-3.276;2022-07-22T16:11:33;101211.04;;;25.22;34.92
74079;BME280;62437;51.544;-3.276;2022-07-22T16:13:58;101208.63;;;25.42;34.81
74079;BME280;62437;51.544;-3.276;2022-07-22T16:16:24;101215.45;;;25.25;34.82
74079;BME280;62437;51.544;-3.276;2022-07-22T16:18:50;101209.29;;;24.85;35.64
74079;BME280;62437;51.544;-3.276;2022-07-22T16:21:15;101208.48;;;25.05;34.41
74079;BME280;62437;51.544;-3.276;2022-07-22T16:23:40;101213.88;;;24.93;34.26
74079;BME280;62437;51.544;-3.276;2022-07-22T16:26:06;101213.59;;;24.47;35.11
74079;BME280;62437;51.544;-3.276;2022-07-22T16:28:31;101217.21;;;24.50;35.14
74079;BME280;62437;51.544;-3.276;2022-07-22T16:30:57;101209.60;;;25.05;34.17
74079;BME280;62437;51.544;-3.276;2022-07-22T16:33:22;101213.39;;;25.02;33.85
74079;BME280;62437;51.544;-3.276;2022-07-22T16:35:48;101207.22;;;24.96;34.35
74079;BME280;62437;51.544;-3.276;2022-07-22T16:38:13;101210.54;;;24.59;34.78
74079;BME280;62437;51.544;-3.276;2022-07-22T16:40:39;101211.62;;;24.71;34.69
74079;BME280;62437;51.544;-3.276;2022-07-22T16:43:05;101210.87;;;24.18;35.17
74079;BME280;62437;51.544;-3.276;2022-07-22T16:45:31;101209.51;;;23.79;35.75
74079;BME280;62437;51.544;-3.276;2022-07-22T16:47:56;101204.64;;;24.43;34.58
74079;BME280;62437;51.544;-3.276;2022-07-22T16:50:22;101201.10;;;24.58;34.04
74079;BME280;62437;51.544;-3.276;2022-07-22T16:52:47;101205.05;;;24.33;33.80
74079;BME280;62437;51.544;-3.276;2022-07-22T16:55:13;101201.90;;;24.73;33.38
74079;BME280;62437;51.544;-3.276;2022-07-22T16:57:38;101205.21;;;24.33;34.33
74079;BME280;62437;51.544;-3.276;2022-07-22T17:00:06;101202.43;;;24.38;33.46
74079;BME280;62437;51.544;-3.276;2022-07-22T17:02:30;101202.76;;;24.77;33.16
74079;BME280;62437;51.544;-3.276;2022-07-22T17:04:55;101199.59;;;24.75;33.02
74079;BME280;62437;51.544;-3.276;2022-07-22T17:07:20;101204.96;;;24.85;32.99
74079;BME280;62437;51.544;-3.276;2022-07-22T17:09:46;101205.92;;;24.34;34.78
74079;BME280;62437;51.544;-3.276;2022-07-22T17:12:11;101200.19;;;23.76;35.11
74079;BME280;62437;51.544;-3.276;2022-07-22T17:14:37;101200.05;;;24.92;33.99
74079;BME280;62437;51.544;-3.276;2022-07-22T17:17:03;101199.53;;;24.27;34.62
74079;BME280;62437;51.544;-3.276;2022-07-22T17:19:28;101193.31;;;23.67;35.07
74079;BME280;62437;51.544;-3.276;2022-07-22T17:21:54;101199.33;;;24.28;34.46
74079;BME280;62437;51.544;-3.276;2022-07-22T17:24:20;101196.40;;;24.01;34.92
74079;BME280;62437;51.544;-3.276;2022-07-22T17:26:45;101191.96;;;23.86;35.15
74079;BME280;62437;51.544;-3.276;2022-07-22T17:29:11;101193.00;;;23.54;35.28
74079;BME280;62437;51.544;-3.276;2022-07-22T17:31:36;101187.62;;;23.50;35.78
74079;BME280;62437;51.544;-3.276;2022-07-22T17:34:02;101189.87;;;23.33;35.83
74079;BME280;62437;51.544;-3.276;2022-07-22T17:36:28;101181.34;;;23.88;34.81
74079;BME280;62437;51.544;-3.276;2022-07-22T17:38:53;101182.18;;;23.67;34.94
74079;BME280;62437;51.544;-3.276;2022-07-22T17:41:19;101186.81;;;23.59;35.16
74079;BME280;62437;51.544;-3.276;2022-07-22T17:43:45;101182.92;;;23.92;35.09
74079;BME280;62437;51.544;-3.276;2022-07-22T17:46:10;101183.53;;;23.26;35.68
74079;BME280;62437;51.544;-3.276;2022-07-22T17:48:36;101183.30;;;23.27;35.43
74079;BME280;62437;51.544;-3.276;2022-07-22T17:51:01;101181.54;;;23.59;35.61
74079;BME280;62437;51.544;-3.276;2022-07-22T17:53:27;101175.62;;;22.99;35.36
74079;BME280;62437;51.544;-3.276;2022-07-22T17:55:53;101185.31;;;22.82;36.26
74079;BME280;62437;51.544;-3.276;2022-07-22T17:58:18;101180.63;;;22.82;35.85
74079;BME280;62437;51.544;-3.276;2022-07-22T18:00:44;101181.89;;;23.29;35.63
74079;BME280;62437;51.544;-3.276;2022-07-22T18:03:09;101183.57;;;22.91;35.75
74079;BME280;62437;51.544;-3.276;2022-07-22T18:05:35;101185.89;;;22.67;36.40
74079;BME280;62437;51.544;-3.276;2022-07-22T18:08:01;101188.23;;;22.90;35.93
74079;BME280;62437;51.544;-3.276;2022-07-22T18:10:27;101186.69;;;23.23;35.71
74079;BME280;62437;51.544;-3.276;2022-07-22T18:12:52;101183.94;;;23.00;35.98
74079;BME280;62437;51.544;-3.276;2022-07-22T18:15:18;101180.26;;;23.39;35.25
74079;BME280;62437;51.544;-3.276;2022-07-22T18:17:43;101186.80;;;23.00;35.75
74079;BME280;62437;51.544;-3.276;2022-07-22T18:20:11;101182.97;;;22.71;36.00
74079;BME280;62437;51.544;-3.276;2022-07-22T18:22:34;101186.74;;;23.04;35.81
74079;BME280;62437;51.544;-3.276;2022-07-22T18:24:59;101186.66;;;22.74;36.15
74079;BME280;62437;51.544;-3.276;2022-07-22T18:27:25;101187.33;;;22.99;37.21
74079;BME280;62437;51.544;-3.276;2022-07-22T18:29:51;101188.83;;;22.73;36.03
74079;BME280;62437;51.544;-3.276;2022-07-22T18:32:17;101183.17;;;22.13;37.31
74079;BME280;62437;51.544;-3.276;2022-07-22T18:34:42;101182.30;;;22.12;37.07
74079;BME280;62437;51.544;-3.276;2022-07-22T18:37:08;101187.83;;;22.27;37.50
74079;BME280;62437;51.544;-3.276;2022-07-22T18:39:33;101192.83;;;22.28;37.29
74079;BME280;62437;51.544;-3.276;2022-07-22T18:41:59;101194.43;;;22.36;37.87
74079;BME280;62437;51.544;-3.276;2022-07-22T18:44:25;101196.20;;;22.86;36.59
74079;BME280;62437;51.544;-3.276;2022-07-22T18:46:51;101194.83;;;22.27;37.36
74079;BME280;62437;51.544;-3.276;2022-07-22T18:49:16;101196.15;;;22.33;37.20
74079;BME280;62437;51.544;-3.276;2022-07-22T18:51:42;101197.92;;;22.46;36.58
74079;BME280;62437;51.544;-3.276;2022-07-22T18:54:07;101198.61;;;22.26;36.84
74079;BME280;62437;51.544;-3.276;2022-07-22T18:56:33;101199.70;;;22.21;36.95
74079;BME280;62437;51.544;-3.276;2022-07-22T18:58:59;101201.54;;;22.30;37.38
74079;BME280;62437;51.544;-3.276;2022-07-22T19:01:24;101202.19;;;22.19;36.93
74079;BME280;62437;51.544;-3.276;2022-07-22T19:03:50;101208.89;;;22.35;37.00
74079;BME280;62437;51.544;-3.276;2022-07-22T19:06:15;101207.91;;;22.50;37.12
74079;BME280;62437;51.544;-3.276;2022-07-22T19:08:41;101208.98;;;21.92;37.11
74079;BME280;62437;51.544;-3.276;2022-07-22T19:11:07;101210.75;;;22.41;36.80
74079;BME280;62437;51.544;-3.276;2022-07-22T19:13:33;101212.21;;;22.29;36.82
74079;BME280;62437;51.544;-3.276;2022-07-22T19:15:58;101213.77;;;22.18;36.66
74079;BME280;62437;51.544;-3.276;2022-07-22T19:18:24;101215.91;;;22.20;37.64
74079;BME280;62437;51.544;-3.276;2022-07-22T19:20:50;101215.38;;;21.80;37.67
74079;BME280;62437;51.544;-3.276;2022-07-22T19:23:15;101219.32;;;22.44;37.35
74079;BME280;62437;51.544;-3.276;2022-07-22T19:25:41;101220.96;;;22.00;38.47
74079;BME280;62437;51.544;-3.276;2022-07-22T19:28:06;101221.08;;;22.01;36.92
74079;BME280;62437;51.544;-3.276;2022-07-22T19:30:32;101220.02;;;21.22;38.37
74079;BME280;62437;51.544;-3.276;2022-07-22T19:32:58;101221.78;;;21.60;38.58
74079;BME280;62437;51.544;-3.276;2022-07-22T19:35:23;101220.74;;;21.92;37.79
74079;BME280;62437;51.544;-3.276;2022-07-22T19:37:49;101219.57;;;21.23;40.09
74079;BME280;62437;51.544;-3.276;2022-07-22T19:40:14;101220.84;;;21.70;38.13
74079;BME280;62437;51.544;-3.276;2022-07-22T19:42:40;101218.61;;;21.60;38.01
74079;BME280;62437;51.544;-3.276;2022-07-22T19:45:06;101212.38;;;21.75;37.53
74079;BME280;62437;51.544;-3.276;2022-07-22T19:47:31;101221.56;;;21.53;38.50
74079;BME280;62437;51.544;-3.276;2022-07-22T19:49:57;101221.09;;;21.44;39.24
74079;BME280;62437;51.544;-3.276;2022-07-22T19:52:23;101224.85;;;21.22;38.44
74079;BME280;62437;51.544;-3.276;2022-07-22T19:54:48;101222.95;;;21.44;38.27
74079;BME280;62437;51.544;-3.276;2022-07-22T19:57:14;101219.25;;;21.53;38.59
74079;BME280;62437;51.544;-3.276;2022-07-22T19:59:40;101216.97;;;21.32;38.87
74079;BME280;62437;51.544;-3.276;2022-07-22T20:02:06;101223.92;;;21.10;38.45
74079;BME280;62437;51.544;-3.276;2022-07-22T20:04:31;101227.46;;;21.45;39.50
74079;BME280;62437;51.544;-3.276;2022-07-22T20:06:57;101226.27;;;21.00;38.26
74079;BME280;62437;51.544;-3.276;2022-07-22T20:09:22;101226.28;;;21.07;38.00
74079;BME280;62437;51.544;-3.276;2022-07-22T20:11:48;101228.07;;;20.92;39.43
74079;BME280;62437;51.544;-3.276;2022-07-22T20:14:14;101227.95;;;21.12;38.59
74079;BME280;62437;51.544;-3.276;2022-07-22T20:16:39;101231.34;;;20.89;39.56
74079;BME280;62437;51.544;-3.276;2022-07-22T20:19:05;101231.94;;;20.66;39.05
74079;BME280;62437;51.544;-3.276;2022-07-22T20:21:30;101235.84;;;20.06;39.74
74079;BME280;62437;51.544;-3.276;2022-07-22T20:23:56;101238.16;;;20.97;38.95
74079;BME280;62437;51.544;-3.276;2022-07-22T20:26:22;101240.92;;;20.72;39.44
74079;BME280;62437;51.544;-3.276;2022-07-22T20:28:48;101243.62;;;20.62;39.10
74079;BME280;62437;51.544;-3.276;2022-07-22T20:31:13;101249.13;;;20.82;39.17
74079;BME280;62437;51.544;-3.276;2022-07-22T20:33:39;101251.52;;;20.10;40.29
74079;BME280;62437;51.544;-3.276;2022-07-22T20:36:06;101251.71;;;20.17;39.57
74079;BME280;62437;51.544;-3.276;2022-07-22T20:38:30;101255.68;;;20.04;39.37
74079;BME280;62437;51.544;-3.276;2022-07-22T20:40:56;101255.20;;;19.75;40.22
74079;BME280;62437;51.544;-3.276;2022-07-22T20:43:21;101258.90;;;19.84;41.28
74079;BME280;62437;51.544;-3.276;2022-07-22T20:45:47;101265.21;;;20.21;40.61
74079;BME280;62437;51.544;-3.276;2022-07-22T20:48:13;101270.68;;;20.22;39.64
74079;BME280;62437;51.544;-3.276;2022-07-22T20:50:38;101272.94;;;20.47;40.02
74079;BME280;62437;51.544;-3.276;2022-07-22T20:53:04;101273.10;;;20.39;39.53
74079;BME280;62437;51.544;-3.276;2022-07-22T20:55:30;101270.93;;;20.43;39.31
74079;BME280;62437;51.544;-3.276;2022-07-22T20:57:55;101271.55;;;20.54;39.15
74079;BME280;62437;51.544;-3.276;2022-07-22T21:00:21;101272.36;;;20.22;39.30
74079;BME280;62437;51.544;-3.276;2022-07-22T21:02:46;101272.49;;;20.16;39.23
74079;BME280;62437;51.544;-3.276;2022-07-22T21:05:12;101271.40;;;19.85;39.57
74079;BME280;62437;51.544;-3.276;2022-07-22T21:07:38;101275.03;;;20.17;40.31
74079;BME280;62437;51.544;-3.276;2022-07-22T21:10:03;101275.12;;;19.52;40.41
74079;BME280;62437;51.544;-3.276;2022-07-22T21:12:29;101274.52;;;19.84;40.55
74079;BME280;62437;51.544;-3.276;2022-07-22T21:14:54;101277.48;;;19.91;40.16
74079;BME280;62437;51.544;-3.276;2022-07-22T21:17:20;101283.21;;;19.86;39.63
74079;BME280;62437;51.544;-3.276;2022-07-22T21:19:46;101286.05;;;19.57;40.00
74079;BME280;62437;51.544;-3.276;2022-07-22T21:22:11;101283.77;;;19.40;40.31
74079;BME280;62437;51.544;-3.276;2022-07-22T21:24:37;101282.51;;;19.03;40.79
74079;BME280;62437;51.544;-3.276;2022-07-22T21:27:03;101284.45;;;19.18;40.69
74079;BME280;62437;51.544;-3.276;2022-07-22T21:29:28;101285.40;;;19.66;39.81
74079;BME280;62437;51.544;-3.276;2022-07-22T21:31:54;101280.17;;;19.84;39.56
74079;BME280;62437;51.544;-3.276;2022-07-22T21:34:20;101289.54;;;19.55;40.04
74079;BME280;62437;51.544;-3.276;2022-07-22T21:36:45;101288.55;;;20.04;41.09
74079;BME280;62437;51.544;-3.276;2022-07-22T21:39:11;101292.84;;;19.87;39.35
74079;BME280;62437;51.544;-3.276;2022-07-22T21:41:37;101292.60;;;20.27;40.93
74079;BME280;62437;51.544;-3.276;2022-07-22T21:44:03;101292.12;;;19.70;39.31
74079;BME280;62437;51.544;-3.276;2022-07-22T21:46:28;101294.20;;;19.70;39.65
74079;BME280;62437;51.544;-3.276;2022-07-22T21:48:54;101287.28;;;20.10;39.17
74079;BME280;62437;51.544;-3.276;2022-07-22T21:51:19;101289.84;;;19.68;39.69
74079;BME280;62437;51.544;-3.276;2022-07-22T21:53:45;101292.40;;;19.59;39.67
74079;BME280;62437;51.544;-3.276;2022-07-22T21:56:11;101294.47;;;19.54;40.02
74079;BME280;62437;51.544;-3.276;2022-07-22T21:58:36;101286.50;;;19.99;39.05
74079;BME280;62437;51.544;-3.276;2022-07-22T22:01:02;101290.99;;;19.81;39.22
74079;BME280;62437;51.544;-3.276;2022-07-22T22:03:28;101297.34;;;19.50;40.21
74079;BME280;62437;51.544;-3.276;2022-07-22T22:05:53;101296.75;;;19.43;39.70
74079;BME280;62437;51.544;-3.276;2022-07-22T22:08:19;101292.59;;;19.43;39.27
74079;BME280;62437;51.544;-3.276;2022-07-22T22:10:44;101290.25;;;19.85;40.05
74079;BME280;62437;51.544;-3.276;2022-07-22T22:13:11;101289.27;;;19.90;41.19
74079;BME280;62437;51.544;-3.276;2022-07-22T22:15:36;101289.20;;;19.67;40.52
74079;BME280;62437;51.544;-3.276;2022-07-22T22:18:02;101286.62;;;19.62;39.20
74079;BME280;62437;51.544;-3.276;2022-07-22T22:20:27;101284.38;;;19.66;40.31
74079;BME280;62437;51.544;-3.276;2022-07-22T22:22:53;101289.17;;;19.19;41.95
74079;BME280;62437;51.544;-3.276;2022-07-22T22:25:18;101290.83;;;18.99;42.13
74079;BME280;62437;51.544;-3.276;2022-07-22T22:27:44;101288.59;;;19.10;42.21
74079;BME280;62437;51.544;-3.276;2022-07-22T22:30:10;101291.88;;;19.21;42.19
74079;BME280;62437;51.544;-3.276;2022-07-22T22:32:35;101297.58;;;19.14;42.82
74079;BME280;62437;51.544;-3.276;2022-07-22T22:35:01;101299.59;;;18.93;42.26
74079;BME280;62437;51.544;-3.276;2022-07-22T22:37:26;101298.73;;;18.59;42.47
74079;BME280;62437;51.544;-3.276;2022-07-22T22:39:52;101303.14;;;18.65;41.80
74079;BME280;62437;51.544;-3.276;2022-07-22T22:42:17;101307.24;;;19.33;41.47
74079;BME280;62437;51.544;-3.276;2022-07-22T22:44:42;101308.31;;;19.39;40.46
74079;BME280;62437;51.544;-3.276;2022-07-22T22:47:08;101308.61;;;19.40;40.16
74079;BME280;62437;51.544;-3.276;2022-07-22T22:49:34;101308.22;;;19.17;41.29
74079;BME280;62437;51.544;-3.276;2022-07-22T22:51:59;101306.80;;;19.45;40.16
74079;BME280;62437;51.544;-3.276;2022-07-22T22:54:25;101307.02;;;19.03;40.59
74079;BME280;62437;51.544;-3.276;2022-07-22T22:56:50;101305.21;;;18.69;41.02
74079;BME280;62437;51.544;-3.276;2022-07-22T22:59:16;101306.01;;;18.50;42.38
74079;BME280;62437;51.544;-3.276;2022-07-22T23:01:42;101306.68;;;18.61;41.96
74079;BME280;62437;51.544;-3.276;2022-07-22T23:04:07;101306.77;;;18.42;41.61
74079;BME280;62437;51.544;-3.276;2022-07-22T23:06:33;101309.24;;;18.67;41.35
74079;BME280;62437;51.544;-3.276;2022-07-22T23:08:58;101304.98;;;18.44;40.91
74079;BME280;62437;51.544;-3.276;2022-07-22T23:11:23;101306.89;;;19.08;40.72
74079;BME280;62437;51.544;-3.276;2022-07-22T23:13:49;101305.99;;;18.84;40.93
74079;BME280;62437;51.544;-3.276;2022-07-22T23:16:15;101302.60;;;18.44;41.01
74079;BME280;62437;51.544;-3.276;2022-07-22T23:18:40;101305.95;;;18.63;40.57
74079;BME280;62437;51.544;-3.276;2022-07-22T23:21:06;101306.96;;;18.66;40.85
74079;BME280;62437;51.544;-3.276;2022-07-22T23:23:31;101310.44;;;18.69;40.86
74079;BME280;62437;51.544;-3.276;2022-07-22T23:25:57;101316.85;;;18.34;41.32
74079;BME280;62437;51.544;-3.276;2022-07-22T23:28:23;101314.30;;;18.13;43.64
74079;BME280;62437;51.544;-3.276;2022-07-22T23:30:48;101311.07;;;17.90;42.73
74079;BME280;62437;51.544;-3.276;2022-07-22T23:33:14;101309.15;;;18.02;42.06
74079;BME280;62437;51.544;-3.276;2022-07-22T23:35:39;101312.60;;;18.20;41.90
74079;BME280;62437;51.544;-3.276;2022-07-22T23:38:06;101313.38;;;18.44;42.93
74079;BME280;62437;51.544;-3.276;2022-07-22T23:40:31;101316.66;;;18.42;41.01
74079;BME280;62437;51.544;-3.276;2022-07-22T23:42:57;101313.16;;;18.08;41.51
74079;BME280;62437;51.544;-3.276;2022-07-22T23:45:23;101310.36;;;18.01;41.29
74079;BME280;62437;51.544;-3.276;2022-07-22T23:47:48;101311.49;;;18.10;42.23
74079;BME280;62437;51.544;-3.276;2022-07-22T23:50:13;101310.24;;;18.24;41.24
74079;BME280;62437;51.544;-3.276;2022-07-22T23:52:39;101305.15;;;17.79;43.42
74079;BME280;62437;51.544;-3.276;2022-07-22T23:55:05;101307.09;;;18.10;42.02
74079;BME280;62437;51.544;-3.276;2022-07-22T23:57:30;101305.92;;;17.82;40.82
74079;BME280;62437;51.544;-3.276;2022-07-22T23:59:56;101302.61;;;18.10;41.70
